sensor_id;sensor_type;location;lat;lon;timestamp;pressure;altitude;pressure_sealevel;temperature;humidity
26531;BME280;14201;43.188;24.160;2023-01-28T00:02:20;99268.81;;;3.09;93.68
26531;BME280;14201;43.188;24.160;2023-01-28T00:04:45;99267.63;;;3.18;93.61
26531;BME280;14201;43.188;24.160;2023-01-28T00:07:10;99269.00;;;3.12;92.83
26531;BME280;14201;43.188;24.160;2023-01-28T00:09:36;99270.50;;;3.09;93.68
26531;BME280;14201;43.188;24.160;2023-01-28T00:12:03;99282.38;;;3.07;93.67
26531;BME280;14201;43.188;24.160;2023-01-28T00:14:28;99284.25;;;3.09;93.70
26531;BME280;14201;43.188;24.160;2023-01-28T00:16:54;99280.88;;;3.10;93.65
26531;BME280;14201;43.188;24.160;2023-01-28T00:19:19;99279.09;;;3.09;93.95
26531;BME280;14201;43.188;24.160;2023-01-28T00:21:45;99282.66;;;3.11;93.37
26531;BME280;14201;43.188;24.160;2023-01-28T00:24:10;99275.16;;;3.14;93.22
26531;BME280;14201;43.188;24.160;2023-01-28T00:26:35;99288.00;;;3.14;92.95
26531;BME280;14201;43.188;24.160;2023-01-28T00:29:01;99290.19;;;3.08;92.89
26531;BME280;14201;43.188;24.160;2023-01-28T00:31:27;99287.78;;;2.98;93.59
26531;BME280;14201;43.188;24.160;2023-01-28T00:33:53;99282.97;;;3.03;93.56
26531;BME280;14201;43.188;24.160;2023-01-28T00:36:19;99288.19;;;3.04;93.43
26531;BME280;14201;43.188;24.160;2023-01-28T00:38:49;99292.06;;;3.11;92.66
26531;BME280;14201;43.188;24.160;2023-01-28T00:41:16;99296.50;;;3.13;92.33
26531;BME280;14201;43.188;24.160;2023-01-28T00:43:41;99302.94;;;3.07;92.74
26531;BME280;14201;43.188;24.160;2023-01-28T00:46:08;99294.41;;;3.08;92.17
26531;BME280;14201;43.188;24.160;2023-01-28T00:48:34;99299.19;;;3.15;92.14
26531;BME280;14201;43.188;24.160;2023-01-28T00:50:59;99304.59;;;3.06;92.55
26531;BME280;14201;43.188;24.160;2023-01-28T00:53:25;99300.84;;;3.01;92.77
26531;BME280;14201;43.188;24.160;2023-01-28T00:55:50;99302.44;;;2.99;93.27
26531;BME280;14201;43.188;24.160;2023-01-28T00:58:17;99303.22;;;2.98;93.25
26531;BME280;14201;43.188;24.160;2023-01-28T01:00:42;99301.75;;;3.02;92.92
26531;BME280;14201;43.188;24.160;2023-01-28T01:03:07;99311.16;;;3.01;93.33
26531;BME280;14201;43.188;24.160;2023-01-28T01:05:33;99307.69;;;3.01;92.93
26531;BME280;14201;43.188;24.160;2023-01-28T01:07:58;99311.31;;;3.04;93.08
26531;BME280;14201;43.188;24.160;2023-01-28T01:10:24;99306.28;;;3.06;92.98
26531;BME280;14201;43.188;24.160;2023-01-28T01:12:49;99312.31;;;3.06;92.85
26531;BME280;14201;43.188;24.160;2023-01-28T01:15:15;99314.81;;;3.05;93.22
26531;BME280;14201;43.188;24.160;2023-01-28T01:17:42;99313.91;;;3.04;92.92
26531;BME280;14201;43.188;24.160;2023-01-28T01:20:11;99313.13;;;3.05;93.34
26531;BME280;14201;43.188;24.160;2023-01-28T01:22:37;99313.13;;;3.05;93.33
26531;BME280;14201;43.188;24.160;2023-01-28T01:25:03;99313.72;;;3.01;92.90
26531;BME280;14201;43.188;24.160;2023-01-28T01:27:29;99314.34;;;3.10;93.44
26531;BME280;14201;43.188;24.160;2023-01-28T01:29:54;99316.69;;;3.07;93.50
26531;BME280;14201;43.188;24.160;2023-01-28T01:32:20;99319.38;;;3.09;92.92
26531;BME280;14201;43.188;24.160;2023-01-28T01:34:46;99312.66;;;3.11;92.76
26531;BME280;14201;43.188;24.160;2023-01-28T01:37:12;99312.53;;;3.09;93.01
26531;BME280;14201;43.188;24.160;2023-01-28T01:39:37;99314.88;;;3.06;92.94
26531;BME280;14201;43.188;24.160;2023-01-28T01:42:02;99314.00;;;3.06;93.23
26531;BME280;14201;43.188;24.160;2023-01-28T01:47:12;99317.28;;;3.03;92.77
26531;BME280;14201;43.188;24.160;2023-01-28T01:49:38;99318.06;;;3.02;93.41
26531;BME280;14201;43.188;24.160;2023-01-28T01:52:11;99313.91;;;3.04;93.14
26531;BME280;14201;43.188;24.160;2023-01-28T01:54:38;99323.41;;;3.05;93.40
26531;BME280;14201;43.188;24.160;2023-01-28T01:57:05;99319.03;;;3.04;93.28
26531;BME280;14201;43.188;24.160;2023-01-28T01:59:32;99322.31;;;3.02;92.88
26531;BME280;14201;43.188;24.160;2023-01-28T02:02:02;99315.47;;;3.02;93.11
26531;BME280;14201;43.188;24.160;2023-01-28T02:04:28;99332.22;;;3.09;93.00
26531;BME280;14201;43.188;24.160;2023-01-28T02:06:55;99330.31;;;3.06;92.71
26531;BME280;14201;43.188;24.160;2023-01-28T02:09:30;99330.13;;;3.03;92.87
26531;BME280;14201;43.188;24.160;2023-01-28T02:12:00;99338.63;;;3.02;92.60
26531;BME280;14201;43.188;24.160;2023-01-28T02:14:28;99335.28;;;3.03;92.28
26531;BME280;14201;43.188;24.160;2023-01-28T02:16:55;99341.78;;;2.98;93.20
26531;BME280;14201;43.188;24.160;2023-01-28T02:19:20;99336.00;;;3.01;93.35
26531;BME280;14201;43.188;24.160;2023-01-28T02:27:13;99334.66;;;2.94;93.85
26531;BME280;14201;43.188;24.160;2023-01-28T02:29:46;99331.72;;;3.01;93.37
26531;BME280;14201;43.188;24.160;2023-01-28T02:32:16;99342.91;;;3.02;93.30
26531;BME280;14201;43.188;24.160;2023-01-28T02:34:51;99342.00;;;3.01;93.24
26531;BME280;14201;43.188;24.160;2023-01-28T02:37:28;99339.22;;;2.98;93.43
26531;BME280;14201;43.188;24.160;2023-01-28T02:40:00;99338.81;;;2.92;93.30
26531;BME280;14201;43.188;24.160;2023-01-28T02:42:28;99342.75;;;2.87;94.31
26531;BME280;14201;43.188;24.160;2023-01-28T02:44:54;99348.69;;;2.86;94.44
26531;BME280;14201;43.188;24.160;2023-01-28T02:47:19;99347.88;;;2.87;94.17
26531;BME280;14201;43.188;24.160;2023-01-28T02:50:04;99345.31;;;2.87;94.62
26531;BME280;14201;43.188;24.160;2023-01-28T02:58:21;99345.56;;;3.03;94.25
26531;BME280;14201;43.188;24.160;2023-01-28T03:03:33;99340.91;;;2.98;93.50
26531;BME280;14201;43.188;24.160;2023-01-28T03:06:03;99343.59;;;2.99;93.63
26531;BME280;14201;43.188;24.160;2023-01-28T03:08:39;99344.47;;;3.00;93.68
26531;BME280;14201;43.188;24.160;2023-01-28T03:11:25;99344.06;;;2.93;93.51
26531;BME280;14201;43.188;24.160;2023-01-28T03:14:11;99344.75;;;2.91;94.00
26531;BME280;14201;43.188;24.160;2023-01-28T03:16:55;99345.75;;;2.93;94.08
26531;BME280;14201;43.188;24.160;2023-01-28T03:19:42;99347.22;;;2.89;94.71
26531;BME280;14201;43.188;24.160;2023-01-28T03:22:25;99348.00;;;2.88;94.99
26531;BME280;14201;43.188;24.160;2023-01-28T03:25:10;99348.50;;;2.96;94.58
26531;BME280;14201;43.188;24.160;2023-01-28T03:27:57;99354.88;;;3.01;94.09
26531;BME280;14201;43.188;24.160;2023-01-28T03:30:47;99348.75;;;2.99;94.09
26531;BME280;14201;43.188;24.160;2023-01-28T03:33:31;99348.50;;;2.96;93.56
26531;BME280;14201;43.188;24.160;2023-01-28T03:36:18;99352.56;;;2.92;94.08
26531;BME280;14201;43.188;24.160;2023-01-28T03:39:02;99356.22;;;2.96;93.55
26531;BME280;14201;43.188;24.160;2023-01-28T03:41:27;99353.25;;;2.90;94.59
26531;BME280;14201;43.188;24.160;2023-01-28T03:43:53;99360.28;;;2.92;94.14
26531;BME280;14201;43.188;24.160;2023-01-28T03:46:20;99351.94;;;3.08;93.00
26531;BME280;14201;43.188;24.160;2023-01-28T03:48:45;99360.44;;;3.07;92.99
26531;BME280;14201;43.188;24.160;2023-01-28T03:51:10;99355.47;;;2.97;93.16
26531;BME280;14201;43.188;24.160;2023-01-28T03:53:36;99356.22;;;2.96;93.38
26531;BME280;14201;43.188;24.160;2023-01-28T03:56:02;99360.19;;;3.04;92.66
26531;BME280;14201;43.188;24.160;2023-01-28T03:58:27;99359.72;;;3.10;92.20
26531;BME280;14201;43.188;24.160;2023-01-28T04:01:17;99354.19;;;3.04;92.13
26531;BME280;14201;43.188;24.160;2023-01-28T04:03:42;99359.03;;;2.99;92.71
26531;BME280;14201;43.188;24.160;2023-01-28T04:06:08;99362.47;;;3.00;92.76
26531;BME280;14201;43.188;24.160;2023-01-28T04:08:34;99367.72;;;3.01;92.94
26531;BME280;14201;43.188;24.160;2023-01-28T04:10:59;99364.84;;;2.96;92.64
26531;BME280;14201;43.188;24.160;2023-01-28T04:13:40;99377.63;;;2.95;92.79
26531;BME280;14201;43.188;24.160;2023-01-28T04:16:06;99373.06;;;2.91;93.41
26531;BME280;14201;43.188;24.160;2023-01-28T04:18:32;99371.72;;;2.84;93.17
26531;BME280;14201;43.188;24.160;2023-01-28T04:20:58;99379.91;;;2.79;94.05
26531;BME280;14201;43.188;24.160;2023-01-28T04:23:23;99376.56;;;2.80;94.21
26531;BME280;14201;43.188;24.160;2023-01-28T04:25:49;99384.19;;;2.78;94.72
26531;BME280;14201;43.188;24.160;2023-01-28T04:28:15;99378.16;;;2.78;94.85
26531;BME280;14201;43.188;24.160;2023-01-28T04:30:40;99380.78;;;2.79;94.81
26531;BME280;14201;43.188;24.160;2023-01-28T04:33:06;99386.16;;;2.82;95.24
26531;BME280;14201;43.188;24.160;2023-01-28T04:35:31;99397.56;;;2.86;94.80
26531;BME280;14201;43.188;24.160;2023-01-28T04:37:56;99402.88;;;2.89;94.81
26531;BME280;14201;43.188;24.160;2023-01-28T04:40:22;99394.28;;;2.88;94.56
26531;BME280;14201;43.188;24.160;2023-01-28T04:42:56;99403.69;;;2.88;94.34
26531;BME280;14201;43.188;24.160;2023-01-28T04:45:22;99401.91;;;2.87;94.48
26531;BME280;14201;43.188;24.160;2023-01-28T04:47:48;99416.44;;;2.86;95.04
26531;BME280;14201;43.188;24.160;2023-01-28T04:50:13;99409.38;;;2.95;94.29
26531;BME280;14201;43.188;24.160;2023-01-28T04:52:39;99416.19;;;2.95;93.52
26531;BME280;14201;43.188;24.160;2023-01-28T04:55:05;99414.97;;;2.90;94.20
26531;BME280;14201;43.188;24.160;2023-01-28T04:57:30;99418.53;;;2.92;94.72
26531;BME280;14201;43.188;24.160;2023-01-28T04:59:56;99423.91;;;2.95;94.51
26531;BME280;14201;43.188;24.160;2023-01-28T05:02:21;99421.34;;;2.95;94.27
26531;BME280;14201;43.188;24.160;2023-01-28T05:04:47;99424.81;;;2.95;93.86
26531;BME280;14201;43.188;24.160;2023-01-28T05:07:12;99419.19;;;3.01;94.14
26531;BME280;14201;43.188;24.160;2023-01-28T05:09:37;99433.22;;;3.06;93.42
26531;BME280;14201;43.188;24.160;2023-01-28T05:12:03;99434.41;;;2.98;93.52
26531;BME280;14201;43.188;24.160;2023-01-28T05:14:28;99437.78;;;2.97;93.36
26531;BME280;14201;43.188;24.160;2023-01-28T05:16:54;99437.53;;;2.94;93.26
26531;BME280;14201;43.188;24.160;2023-01-28T05:19:20;99435.19;;;2.97;92.76
26531;BME280;14201;43.188;24.160;2023-01-28T05:21:45;99440.94;;;2.93;93.65
26531;BME280;14201;43.188;24.160;2023-01-28T05:24:10;99440.47;;;2.99;93.37
26531;BME280;14201;43.188;24.160;2023-01-28T05:26:36;99443.34;;;3.03;93.08
26531;BME280;14201;43.188;24.160;2023-01-28T05:29:02;99450.06;;;3.01;92.35
26531;BME280;14201;43.188;24.160;2023-01-28T05:31:27;99439.34;;;2.95;92.66
26531;BME280;14201;43.188;24.160;2023-01-28T05:33:53;99449.63;;;2.95;92.67
26531;BME280;14201;43.188;24.160;2023-01-28T05:36:18;99442.91;;;2.97;92.56
26531;BME280;14201;43.188;24.160;2023-01-28T05:38:44;99452.09;;;2.93;92.90
26531;BME280;14201;43.188;24.160;2023-01-28T05:41:09;99450.53;;;2.95;93.36
26531;BME280;14201;43.188;24.160;2023-01-28T05:43:35;99452.78;;;2.91;93.66
26531;BME280;14201;43.188;24.160;2023-01-28T05:46:00;99460.69;;;2.94;93.52
26531;BME280;14201;43.188;24.160;2023-01-28T05:48:25;99467.72;;;2.96;93.11
26531;BME280;14201;43.188;24.160;2023-01-28T05:50:51;99467.06;;;2.99;93.50
26531;BME280;14201;43.188;24.160;2023-01-28T05:53:16;99472.41;;;3.02;93.16
26531;BME280;14201;43.188;24.160;2023-01-28T05:55:42;99469.94;;;3.04;92.84
26531;BME280;14201;43.188;24.160;2023-01-28T05:58:07;99475.66;;;3.00;92.84
26531;BME280;14201;43.188;24.160;2023-01-28T06:00:32;99469.75;;;3.01;93.48
26531;BME280;14201;43.188;24.160;2023-01-28T06:02:58;99478.34;;;3.01;93.35
26531;BME280;14201;43.188;24.160;2023-01-28T06:05:23;99477.72;;;3.17;91.67
26531;BME280;14201;43.188;24.160;2023-01-28T06:07:49;99481.97;;;3.17;91.30
26531;BME280;14201;43.188;24.160;2023-01-28T06:10:15;99484.13;;;3.10;91.48
26531;BME280;14201;43.188;24.160;2023-01-28T06:12:42;99483.81;;;3.06;91.72
26531;BME280;14201;43.188;24.160;2023-01-28T06:15:07;99485.50;;;3.05;92.62
26531;BME280;14201;43.188;24.160;2023-01-28T06:17:33;99491.41;;;3.04;92.81
26531;BME280;14201;43.188;24.160;2023-01-28T06:19:58;99488.84;;;3.04;92.83
26531;BME280;14201;43.188;24.160;2023-01-28T06:22:24;99500.81;;;3.04;93.14
26531;BME280;14201;43.188;24.160;2023-01-28T06:24:49;99501.97;;;2.95;93.94
26531;BME280;14201;43.188;24.160;2023-01-28T06:27:14;99510.69;;;2.98;93.67
26531;BME280;14201;43.188;24.160;2023-01-28T06:29:40;99509.22;;;3.01;93.83
26531;BME280;14201;43.188;24.160;2023-01-28T06:32:05;99510.22;;;3.03;93.99
26531;BME280;14201;43.188;24.160;2023-01-28T06:34:31;99514.91;;;3.09;94.18
26531;BME280;14201;43.188;24.160;2023-01-28T06:36:56;99519.94;;;3.07;94.03
26531;BME280;14201;43.188;24.160;2023-01-28T06:39:22;99514.00;;;3.08;93.39
26531;BME280;14201;43.188;24.160;2023-01-28T06:41:48;99514.00;;;3.08;93.63
26531;BME280;14201;43.188;24.160;2023-01-28T06:44:14;99514.00;;;3.08;93.39
26531;BME280;14201;43.188;24.160;2023-01-28T06:46:39;99517.66;;;3.12;93.40
26531;BME280;14201;43.188;24.160;2023-01-28T06:49:04;99518.41;;;3.23;93.02
26531;BME280;14201;43.188;24.160;2023-01-28T06:51:30;99524.25;;;3.20;93.34
26531;BME280;14201;43.188;24.160;2023-01-28T06:53:55;99531.97;;;3.20;93.12
26531;BME280;14201;43.188;24.160;2023-01-28T06:56:21;99527.91;;;3.24;93.02
26531;BME280;14201;43.188;24.160;2023-01-28T06:58:46;99525.56;;;3.27;92.48
26531;BME280;14201;43.188;24.160;2023-01-28T07:01:12;99535.84;;;3.27;92.02
26531;BME280;14201;43.188;24.160;2023-01-28T07:03:37;99532.28;;;3.25;92.17
26531;BME280;14201;43.188;24.160;2023-01-28T07:06:03;99535.09;;;3.28;91.92
26531;BME280;14201;43.188;24.160;2023-01-28T07:08:28;99540.44;;;3.31;91.80
26531;BME280;14201;43.188;24.160;2023-01-28T07:10:53;99549.94;;;3.32;91.73
26531;BME280;14201;43.188;24.160;2023-01-28T07:13:19;99554.97;;;3.30;91.98
26531;BME280;14201;43.188;24.160;2023-01-28T07:15:44;99549.25;;;3.34;91.65
26531;BME280;14201;43.188;24.160;2023-01-28T07:18:09;99548.16;;;3.31;91.67
26531;BME280;14201;43.188;24.160;2023-01-28T07:20:35;99559.09;;;3.40;91.64
26531;BME280;14201;43.188;24.160;2023-01-28T07:23:00;99553.00;;;3.51;91.15
26531;BME280;14201;43.188;24.160;2023-01-28T07:25:25;99559.50;;;3.46;90.53
26531;BME280;14201;43.188;24.160;2023-01-28T07:27:51;99561.88;;;3.43;90.67
26531;BME280;14201;43.188;24.160;2023-01-28T07:30:18;99563.53;;;3.43;91.29
26531;BME280;14201;43.188;24.160;2023-01-28T07:32:43;99555.72;;;3.41;92.00
26531;BME280;14201;43.188;24.160;2023-01-28T07:35:09;99566.28;;;3.58;91.57
26531;BME280;14201;43.188;24.160;2023-01-28T07:37:34;99566.81;;;3.65;90.79
26531;BME280;14201;43.188;24.160;2023-01-28T07:40:00;99570.38;;;3.67;91.24
26531;BME280;14201;43.188;24.160;2023-01-28T07:42:25;99568.41;;;3.63;91.03
26531;BME280;14201;43.188;24.160;2023-01-28T07:44:51;99572.25;;;3.70;90.96
26531;BME280;14201;43.188;24.160;2023-01-28T07:47:16;99573.22;;;3.33;91.33
26531;BME280;14201;43.188;24.160;2023-01-28T07:49:41;99575.00;;;3.34;92.55
26531;BME280;14201;43.188;24.160;2023-01-28T07:52:07;99567.28;;;3.34;93.12
26531;BME280;14201;43.188;24.160;2023-01-28T07:54:32;99572.06;;;3.42;94.18
26531;BME280;14201;43.188;24.160;2023-01-28T07:56:58;99569.03;;;3.47;93.41
26531;BME280;14201;43.188;24.160;2023-01-28T07:59:24;99575.28;;;3.51;93.29
26531;BME280;14201;43.188;24.160;2023-01-28T08:01:49;99580.16;;;3.60;92.71
26531;BME280;14201;43.188;24.160;2023-01-28T08:04:15;99574.00;;;3.58;93.25
26531;BME280;14201;43.188;24.160;2023-01-28T08:06:40;99580.09;;;3.71;91.67
26531;BME280;14201;43.188;24.160;2023-01-28T08:09:06;99587.72;;;3.70;91.95
26531;BME280;14201;43.188;24.160;2023-01-28T08:11:38;99579.41;;;3.49;91.94
26531;BME280;14201;43.188;24.160;2023-01-28T08:14:04;99582.84;;;3.36;93.13
26531;BME280;14201;43.188;24.160;2023-01-28T08:16:29;99582.97;;;3.63;92.35
26531;BME280;14201;43.188;24.160;2023-01-28T08:18:55;99592.25;;;3.61;91.80
26531;BME280;14201;43.188;24.160;2023-01-28T08:21:21;99599.41;;;3.65;91.89
26531;BME280;14201;43.188;24.160;2023-01-28T08:23:46;99589.00;;;3.63;91.98
26531;BME280;14201;43.188;24.160;2023-01-28T08:26:11;99593.97;;;3.73;90.20
26531;BME280;14201;43.188;24.160;2023-01-28T08:28:37;99595.44;;;3.70;89.92
26531;BME280;14201;43.188;24.160;2023-01-28T08:31:02;99599.00;;;3.72;89.83
26531;BME280;14201;43.188;24.160;2023-01-28T08:33:28;99601.41;;;3.69;90.22
26531;BME280;14201;43.188;24.160;2023-01-28T08:35:53;99597.47;;;3.87;89.59
26531;BME280;14201;43.188;24.160;2023-01-28T08:38:18;99600.22;;;3.77;89.02
26531;BME280;14201;43.188;24.160;2023-01-28T08:40:45;99606.16;;;3.76;89.34
26531;BME280;14201;43.188;24.160;2023-01-28T08:43:11;99605.84;;;3.71;90.19
26531;BME280;14201;43.188;24.160;2023-01-28T08:45:36;99598.53;;;3.78;90.68
26531;BME280;14201;43.188;24.160;2023-01-28T08:48:03;99605.97;;;3.73;90.11
26531;BME280;14201;43.188;24.160;2023-01-28T08:50:36;99612.47;;;3.68;90.52
26531;BME280;14201;43.188;24.160;2023-01-28T08:53:03;99612.88;;;3.74;91.00
26531;BME280;14201;43.188;24.160;2023-01-28T08:55:29;99617.44;;;3.65;92.26
26531;BME280;14201;43.188;24.160;2023-01-28T08:57:55;99614.47;;;3.72;93.54
26531;BME280;14201;43.188;24.160;2023-01-28T09:00:20;99614.28;;;3.69;93.28
26531;BME280;14201;43.188;24.160;2023-01-28T09:02:46;99618.25;;;3.77;93.37
26531;BME280;14201;43.188;24.160;2023-01-28T09:05:11;99617.56;;;3.80;92.31
26531;BME280;14201;43.188;24.160;2023-01-28T09:07:37;99622.06;;;3.82;91.34
26531;BME280;14201;43.188;24.160;2023-01-28T09:10:03;99622.06;;;3.82;91.82
26531;BME280;14201;43.188;24.160;2023-01-28T09:12:29;99620.09;;;3.91;92.25
26531;BME280;14201;43.188;24.160;2023-01-28T09:14:54;99617.31;;;3.88;90.63
26531;BME280;14201;43.188;24.160;2023-01-28T09:17:20;99615.75;;;3.65;92.93
26531;BME280;14201;43.188;24.160;2023-01-28T09:19:46;99605.75;;;3.70;91.64
26531;BME280;14201;43.188;24.160;2023-01-28T09:22:11;99613.63;;;3.60;92.99
26531;BME280;14201;43.188;24.160;2023-01-28T09:24:37;99609.00;;;3.42;94.33
26531;BME280;14201;43.188;24.160;2023-01-28T09:27:02;99609.72;;;3.28;95.00
26531;BME280;14201;43.188;24.160;2023-01-28T09:29:27;99608.44;;;2.98;96.58
26531;BME280;14201;43.188;24.160;2023-01-28T09:31:53;99613.69;;;2.99;97.65
26531;BME280;14201;43.188;24.160;2023-01-28T09:34:19;99609.19;;;2.96;98.17
26531;BME280;14201;43.188;24.160;2023-01-28T09:36:44;99606.50;;;3.19;97.55
26531;BME280;14201;43.188;24.160;2023-01-28T09:39:10;99607.88;;;3.39;96.93
26531;BME280;14201;43.188;24.160;2023-01-28T09:46:48;99613.41;;;3.57;95.95
26531;BME280;14201;43.188;24.160;2023-01-28T09:49:16;99612.34;;;3.66;95.41
26531;BME280;14201;43.188;24.160;2023-01-28T09:51:45;99604.88;;;3.69;94.91
26531;BME280;14201;43.188;24.160;2023-01-28T09:54:17;99617.63;;;3.68;94.96
26531;BME280;14201;43.188;24.160;2023-01-28T09:56:44;99619.97;;;3.77;95.12
26531;BME280;14201;43.188;24.160;2023-01-28T09:59:18;99617.69;;;3.81;94.57
26531;BME280;14201;43.188;24.160;2023-01-28T10:01:49;99622.94;;;3.83;94.11
26531;BME280;14201;43.188;24.160;2023-01-28T10:07:05;99619.84;;;3.75;94.28
26531;BME280;14201;43.188;24.160;2023-01-28T10:09:50;99618.91;;;3.86;93.97
26531;BME280;14201;43.188;24.160;2023-01-28T10:22:47;99619.25;;;4.04;93.35
26531;BME280;14201;43.188;24.160;2023-01-28T10:25:18;99607.50;;;3.83;94.45
26531;BME280;14201;43.188;24.160;2023-01-28T10:27:43;99609.78;;;3.91;95.56
26531;BME280;14201;43.188;24.160;2023-01-28T10:32:43;99619.00;;;3.63;94.92
26531;BME280;14201;43.188;24.160;2023-01-28T10:35:11;99612.16;;;3.38;95.89
26531;BME280;14201;43.188;24.160;2023-01-28T10:37:37;99606.13;;;3.63;96.70
26531;BME280;14201;43.188;24.160;2023-01-28T10:40:04;99610.00;;;3.69;97.50
26531;BME280;14201;43.188;24.160;2023-01-28T10:47:49;99616.91;;;3.82;95.32
26531;BME280;14201;43.188;24.160;2023-01-28T10:50:23;99616.97;;;3.96;94.31
26531;BME280;14201;43.188;24.160;2023-01-28T10:52:52;99617.56;;;4.05;93.83
26531;BME280;14201;43.188;24.160;2023-01-28T10:55:18;99615.78;;;4.04;93.34
26531;BME280;14201;43.188;24.160;2023-01-28T10:57:43;99614.56;;;3.99;93.85
26531;BME280;14201;43.188;24.160;2023-01-28T11:00:25;99619.72;;;3.99;94.96
26531;BME280;14201;43.188;24.160;2023-01-28T11:02:51;99618.78;;;4.10;93.39
26531;BME280;14201;43.188;24.160;2023-01-28T11:07:45;99618.22;;;4.27;92.25
26531;BME280;14201;43.188;24.160;2023-01-28T11:12:53;99614.97;;;4.43;90.84
26531;BME280;14201;43.188;24.160;2023-01-28T11:15:19;99611.81;;;3.96;92.83
26531;BME280;14201;43.188;24.160;2023-01-28T11:17:45;99618.78;;;4.10;92.96
26531;BME280;14201;43.188;24.160;2023-01-28T11:20:20;99622.56;;;4.15;92.84
26531;BME280;14201;43.188;24.160;2023-01-28T11:22:47;99614.16;;;3.92;93.09
26531;BME280;14201;43.188;24.160;2023-01-28T11:25:29;99610.66;;;3.79;93.63
26531;BME280;14201;43.188;24.160;2023-01-28T11:27:55;99609.75;;;3.78;94.49
26531;BME280;14201;43.188;24.160;2023-01-28T11:30:22;99613.94;;;3.89;93.88
26531;BME280;14201;43.188;24.160;2023-01-28T11:33:00;99612.22;;;3.77;93.30
26531;BME280;14201;43.188;24.160;2023-01-28T11:35:29;99619.00;;;3.63;91.65
26531;BME280;14201;43.188;24.160;2023-01-28T11:37:59;99615.47;;;3.74;92.47
26531;BME280;14201;43.188;24.160;2023-01-28T11:40:24;99616.69;;;3.79;91.62
26531;BME280;14201;43.188;24.160;2023-01-28T11:42:50;99609.41;;;3.99;91.90
26531;BME280;14201;43.188;24.160;2023-01-28T11:45:17;99609.13;;;3.94;90.60
26531;BME280;14201;43.188;24.160;2023-01-28T11:50:50;99599.91;;;4.11;92.18
26531;BME280;14201;43.188;24.160;2023-01-28T11:53:27;99614.41;;;4.09;92.23
26531;BME280;14201;43.188;24.160;2023-01-28T12:09:05;99607.13;;;4.55;89.95
26531;BME280;14201;43.188;24.160;2023-01-28T12:17:02;99612.91;;;4.64;89.57
26531;BME280;14201;43.188;24.160;2023-01-28T12:22:30;99611.91;;;4.76;89.30
26531;BME280;14201;43.188;24.160;2023-01-28T12:27:50;99614.28;;;4.72;87.62
26531;BME280;14201;43.188;24.160;2023-01-28T12:35:21;99618.25;;;4.94;87.92
26531;BME280;14201;43.188;24.160;2023-01-28T12:37:57;99619.94;;;4.93;87.95
26531;BME280;14201;43.188;24.160;2023-01-28T12:40:43;99623.22;;;5.04;88.07
26531;BME280;14201;43.188;24.160;2023-01-28T12:43:12;99612.97;;;5.06;87.40
26531;BME280;14201;43.188;24.160;2023-01-28T12:45:44;99623.59;;;5.10;87.33
26531;BME280;14201;43.188;24.160;2023-01-28T12:51:20;99629.06;;;5.02;86.46
26531;BME280;14201;43.188;24.160;2023-01-28T12:56:02;99616.84;;;5.12;86.23
26531;BME280;14201;43.188;24.160;2023-01-28T12:58:39;99621.81;;;5.09;86.36
26531;BME280;14201;43.188;24.160;2023-01-28T13:01:08;99632.72;;;5.19;87.01
26531;BME280;14201;43.188;24.160;2023-01-28T13:06:34;99633.72;;;5.07;84.00
26531;BME280;14201;43.188;24.160;2023-01-28T13:09:13;99639.59;;;5.05;84.57
26531;BME280;14201;43.188;24.160;2023-01-28T13:11:40;99636.63;;;4.99;85.52
26531;BME280;14201;43.188;24.160;2023-01-28T13:14:06;99642.06;;;5.03;86.22
26531;BME280;14201;43.188;24.160;2023-01-28T13:16:33;99639.50;;;4.90;86.77
26531;BME280;14201;43.188;24.160;2023-01-28T13:19:19;99638.28;;;4.98;87.13
26531;BME280;14201;43.188;24.160;2023-01-28T13:21:46;99644.38;;;4.99;87.77
26531;BME280;14201;43.188;24.160;2023-01-28T13:26:43;99636.63;;;5.12;85.67
26531;BME280;14201;43.188;24.160;2023-01-28T13:31:44;99649.41;;;5.10;86.46
26531;BME280;14201;43.188;24.160;2023-01-28T13:37:04;99641.97;;;4.88;88.28
26531;BME280;14201;43.188;24.160;2023-01-28T13:39:32;99650.81;;;4.92;87.93
26531;BME280;14201;43.188;24.160;2023-01-28T13:42:09;99656.84;;;4.52;89.14
26531;BME280;14201;43.188;24.160;2023-01-28T13:44:44;99656.13;;;4.55;88.83
26531;BME280;14201;43.188;24.160;2023-01-28T13:52:03;99661.31;;;4.68;89.98
26531;BME280;14201;43.188;24.160;2023-01-28T13:54:33;99658.53;;;4.79;88.93
26531;BME280;14201;43.188;24.160;2023-01-28T14:02:19;99663.81;;;4.93;87.41
26531;BME280;14201;43.188;24.160;2023-01-28T14:10:19;99670.53;;;4.65;88.08
26531;BME280;14201;43.188;24.160;2023-01-28T14:18:20;99679.59;;;4.71;88.48
26531;BME280;14201;43.188;24.160;2023-01-28T14:20:48;99676.59;;;4.79;88.50
26531;BME280;14201;43.188;24.160;2023-01-28T14:23:18;99682.56;;;4.78;87.80
26531;BME280;14201;43.188;24.160;2023-01-28T14:28:53;99681.56;;;4.76;88.04
26531;BME280;14201;43.188;24.160;2023-01-28T14:31:31;99679.50;;;4.83;87.74
26531;BME280;14201;43.188;24.160;2023-01-28T14:34:21;99679.59;;;4.85;88.39
26531;BME280;14201;43.188;24.160;2023-01-28T14:36:43;99677.38;;;4.64;89.00
26531;BME280;14201;43.188;24.160;2023-01-28T14:39:16;99683.28;;;4.37;90.43
26531;BME280;14201;43.188;24.160;2023-01-28T14:41:43;99686.78;;;4.50;91.38
26531;BME280;14201;43.188;24.160;2023-01-28T14:44:11;99683.50;;;4.53;91.66
26531;BME280;14201;43.188;24.160;2023-01-28T14:46:44;99692.84;;;4.51;90.90
26531;BME280;14201;43.188;24.160;2023-01-28T14:49:21;99688.56;;;4.38;91.72
26531;BME280;14201;43.188;24.160;2023-01-28T14:51:53;99699.56;;;4.49;91.15
26531;BME280;14201;43.188;24.160;2023-01-28T14:59:41;99698.13;;;4.27;91.87
26531;BME280;14201;43.188;24.160;2023-01-28T15:02:30;99695.34;;;3.99;92.46
26531;BME280;14201;43.188;24.160;2023-01-28T15:05:05;99700.19;;;3.94;92.76
26531;BME280;14201;43.188;24.160;2023-01-28T15:07:31;99703.66;;;3.95;94.03
26531;BME280;14201;43.188;24.160;2023-01-28T15:10:00;99710.72;;;3.98;95.34
26531;BME280;14201;43.188;24.160;2023-01-28T15:12:26;99709.22;;;4.01;94.81